Bookmark and Share
Track history (hours):
 

Quenames

More information available from US FCC via Universal Licensing System and Coast Guard Vessel Documentation Center.

Last reported at 2014-Apr-20 14:29 UTC. Time now 2014-Apr-20 16:05 UTC.
Position N 40°32' W 074°15'.

Length 24 m.

Type: Towing. MMSI: 367022790.

NotesDate/timePositionNaut miles runAvg speedWind from/ knotsBaromVisibWave heightAir tempDewpointWater temp
2014-Apr-20 14:29N 40°32' W 074°15'0 0.0
2014-Apr-20 12:32N 40°32' W 074°15'0 0.0
2014-Apr-20 11:31N 40°32' W 074°15'0 0.0
2014-Apr-20 10:32N 40°32' W 074°15'0 0.0
2014-Apr-20 09:33N 40°32' W 074°15'0 0.0
2014-Apr-20 07:29N 40°32' W 074°15'0 0.0
2014-Apr-20 06:15N 40°32' W 074°15'0 0.0
2014-Apr-20 03:09N 40°32' W 074°15'0 0.0
2014-Apr-20 00:15N 40°32' W 074°15'0 0.0
2014-Apr-19 23:22N 40°32' W 074°15'0 0.0
2014-Apr-19 22:28N 40°32' W 074°15'0 0.0
2014-Apr-19 21:27N 40°32' W 074°15'0 0.0
2014-Apr-19 20:08N 40°32' W 074°15'0 0.0
2014-Apr-19 19:12N 40°32' W 074°15'0 0.0
2014-Apr-19 18:30N 40°32' W 074°15'0 0.0
2014-Apr-19 17:30N 40°32' W 074°15'0 0.0
2014-Apr-19 14:32N 40°32' W 074°15'0 0.0
2014-Apr-19 13:13N 40°32' W 074°15'0 0.0
2014-Apr-19 12:33N 40°32' W 074°15'0 0.0
2014-Apr-19 11:32N 40°32' W 074°15'0 0.0
2014-Apr-19 10:28N 40°32' W 074°15'0 0.0
2014-Apr-19 09:33N 40°32' W 074°15'0 0.0
2014-Apr-19 08:31N 40°32' W 074°15'0 0.0
2014-Apr-19 07:33N 40°32' W 074°15'0 0.0
2014-Apr-19 06:31N 40°32' W 074°15'0 0.0
2014-Apr-19 05:33N 40°32' W 074°15'0 0.0
2014-Apr-19 04:29N 40°32' W 074°15'0 0.0
2014-Apr-19 03:33N 40°32' W 074°15'0 0.0
2014-Apr-19 02:34N 40°32' W 074°15'0 0.0
2014-Apr-19 01:33N 40°32' W 074°15'0 0.0
2014-Apr-19 00:33N 40°32' W 074°15'0 0.0
2014-Apr-18 23:32N 40°32' W 074°15'0 0.0
2014-Apr-18 22:33N 40°32' W 074°15'0 0.0
2014-Apr-18 21:29N 40°32' W 074°15'0 0.0
2014-Apr-18 20:33N 40°32' W 074°15'0 0.0
2014-Apr-18 19:31N 40°32' W 074°15'0 0.0
2014-Apr-18 18:31N 40°32' W 074°15'0 0.0
2014-Apr-18 17:24N 40°32' W 074°15'0 0.0
2014-Apr-18 16:33N 40°32' W 074°15'0 0.0
2014-Apr-18 15:25N 40°32' W 074°15'0 0.0
2014-Apr-18 14:25N 40°32' W 074°15'0 0.0
2014-Apr-18 13:33N 40°32' W 074°15'0 0.0
2014-Apr-18 12:33N 40°32' W 074°15'0 0.0
2014-Apr-18 11:33N 40°32' W 074°15'0 0.0
2014-Apr-18 10:30N 40°32' W 074°15'0 0.0
2014-Apr-18 09:33N 40°32' W 074°15'0 0.0
2014-Apr-18 05:12N 40°32' W 074°15'0 0.0
2014-Apr-18 04:30N 40°32' W 074°15'0 0.0
2014-Apr-18 03:30N 40°32' W 074°15'0 0.0
2014-Apr-18 02:31N 40°32' W 074°15'0 0.0
2014-Apr-18 01:27N 40°32' W 074°15'0 0.0
2014-Apr-18 00:33N 40°32' W 074°15'0 0.0
2014-Apr-17 23:32N 40°32' W 074°15'0 0.0
2014-Apr-17 22:29N 40°32' W 074°15'0 0.0
2014-Apr-17 21:30N 40°32' W 074°15'1 0.8
2014-Apr-17 20:27N 40°33' W 074°15'1 0.9
2014-Apr-17 19:33N 40°33' W 074°14'7 7.1
2014-Apr-17 18:33N 40°39' W 074°08'5 5.5
2014-Apr-17 17:33N 40°35' W 074°02'11 7.7
2014-Apr-17 16:08N 40°36' W 073°48'3 4.4
2014-Apr-17 15:33N 40°38' W 073°45'0 0.0
2014-Apr-17 14:24N 40°38' W 073°45'0 0.0
2014-Apr-17 13:18N 40°38' W 073°45'0 0.0
2014-Apr-17 12:33N 40°38' W 073°45'0 0.0
2014-Apr-17 11:27N 40°38' W 073°45'0 0.0
2014-Apr-17 10:20N 40°38' W 073°45'0 0.0
2014-Apr-17 09:32N 40°38' W 073°45'0 0.0
2014-Apr-17 08:33N 40°38' W 073°45'0 0.0
2014-Apr-17 07:32N 40°38' W 073°45'0 0.0
2014-Apr-17 06:32N 40°38' W 073°45'3 2.8
2014-Apr-17 05:28N 40°36' W 073°48'6 6.0
2014-Apr-17 04:33N 40°34' W 073°55'6 6.2
2014-Apr-17 03:33N 40°36' W 074°02'7 6.7
2014-Apr-17 02:33N 40°39' W 074°10'8 3.8
2014-Apr-17 00:30N 40°32' W 074°15'0 0.0
2014-Apr-16 23:23N 40°32' W 074°15'0 0.0
2014-Apr-16 22:26N 40°32' W 074°15'0 0.0
2014-Apr-16 21:32N 40°32' W 074°15'0 0.0
2014-Apr-16 20:28N 40°32' W 074°15'0 0.0
2014-Apr-16 19:30N 40°32' W 074°15'0 0.0
2014-Apr-16 17:29N 40°32' W 074°15'9 3.0
2014-Apr-16 14:33N 40°39' W 074°08'8 7.6
2014-Apr-16 13:33N 40°44' W 074°01'2 0.1
2014-Apr-15 03:34N 40°42' W 074°02'7 6.6
2014-Apr-15 02:34N 40°39' W 074°09'5 2.2
2014-Apr-15 00:29N 40°35' W 074°13'0 0.0
2014-Apr-14 22:31N 40°35' W 074°13'0 0.0
2014-Apr-14 19:34N 40°35' W 074°13'4 0.5
2014-Apr-14 11:32N 40°32' W 074°15'0 0.0
2014-Apr-14 10:32N 40°32' W 074°15'0 0.0
2014-Apr-14 08:33N 40°32' W 074°15'0 0.0
2014-Apr-13 20:09N 40°32' W 074°15'0 0.0
2014-Apr-13 18:05N 40°32' W 074°15'0 0.0
2014-Apr-13 10:25N 40°32' W 074°15'0 0.0
2014-Apr-13 09:23N 40°32' W 074°15'0 0.0
2014-Apr-13 08:32N 40°32' W 074°15'0 0.0
2014-Apr-13 07:31N 40°32' W 074°15'0 0.0
2014-Apr-13 06:27N 40°32' W 074°15'0 0.0
2014-Apr-13 05:33N 40°32' W 074°15'0 0.0
2014-Apr-13 04:33N 40°32' W 074°15'0 0.0
2014-Apr-13 03:33N 40°32' W 074°15'0 0.0
2014-Apr-13 02:22N 40°32' W 074°15'0 0.0
2014-Apr-13 01:33N 40°32' W 074°15'0 0.0
2014-Apr-13 00:33N 40°32' W 074°15'1 0.2
2014-Apr-12 19:10N 40°33' W 074°15'0 0.0
2014-Apr-12 17:22N 40°33' W 074°15'0 0.0
2014-Apr-12 14:24N 40°33' W 074°15'0 0.0
2014-Apr-12 12:19N 40°33' W 074°15'0 0.0
2014-Apr-12 11:31N 40°33' W 074°15'7 1.2
2014-Apr-12 05:33N 40°39' W 074°09'8 8.0
2014-Apr-12 04:33N 40°42' W 073°60'8 8.2
2014-Apr-12 03:33N 40°48' W 073°51'15 7.4
2014-Apr-12 01:33N 40°56' W 073°35'8 7.9
2014-Apr-12 00:33N 40°60' W 073°26'8 8.0
2014-Apr-11 23:30N 41°03' W 073°16'8 8.2
2014-Apr-11 22:34N 41°06' W 073°06'8 8.1
2014-Apr-11 21:33N 41°11' W 072°57'7 7.0
2014-Apr-11 20:30N 41°18' W 072°54'0 0.0
2014-Apr-11 19:13N 41°18' W 072°54'0 0.0
2014-Apr-11 18:33N 41°18' W 072°54'0 0.0
2014-Apr-11 17:33N 41°18' W 072°54'0 0.0
2014-Apr-11 16:33N 41°18' W 072°54'0 0.0
2014-Apr-11 15:33N 41°18' W 072°54'0 0.0
2014-Apr-11 14:34N 41°18' W 072°54'0 0.0
2014-Apr-11 13:31N 41°18' W 072°54'0 0.0
2014-Apr-11 12:24N 41°18' W 072°54'0 0.1
2014-Apr-11 11:31N 41°18' W 072°54'6 6.7
2014-Apr-11 10:34N 41°11' W 072°57'7 7.3
2014-Apr-11 09:33N 41°07' W 073°04'7 7.4
2014-Apr-11 08:34N 41°04' W 073°13'8 8.0
2014-Apr-11 07:33N 41°01' W 073°23'5 5.3
2014-Apr-11 06:33N 40°56' W 073°25'0 0.0
2014-Apr-11 05:26N 40°56' W 073°25'0 0.0
2014-Apr-11 04:29N 40°56' W 073°25'0 0.0
2014-Apr-11 03:33N 40°56' W 073°25'0 0.0
2014-Apr-11 02:33N 40°56' W 073°25'0 0.0
2014-Apr-11 01:34N 40°56' W 073°25'4 3.5
2014-Apr-11 00:34N 40°58' W 073°29'8 7.9
2014-Apr-10 23:33N 40°55' W 073°39'8 7.9
2014-Apr-10 22:29N 40°49' W 073°47'7 7.5
2014-Apr-10 21:33N 40°47' W 073°55'8 8.1
2014-Apr-10 20:33N 40°41' W 074°02'7 6.6
2014-Apr-10 19:33N 40°39' W 074°10'6 2.7
2014-Apr-10 17:25N 40°33' W 074°14'2 2.0
2014-Apr-10 16:28N 40°32' W 074°15'0 0.0
2014-Apr-10 15:32N 40°32' W 074°15'  

Dump ship's entire track history

sailing weather and tide predictions

Quenames — WTU9038 — position and weather